Sparks, Nebraska
Current Conditions -  °F | °C
As of 3:52 PM on Wednesday 28 Jan 2015 (Local Time) from KVTN Reporting Station
Broken Clouds Broken Clouds  
Wind Chill: 58°   Ceiling: 12000
Heat Index: 58°   Visibility: 10mi
Dew Point: 27°   Wind: 21mph
Humidity: 31%   Direction: 320°NW
Pressure: 29.85"   Gusts: 28mph
Location:  42.94°N, 100.26°W
Report Text: KVTN 282152Z AUTO 32018G24KT 10SM BKN120 14/M03 A2985 RMK AO2 PK WND 31030/2053 SLP113 T01441028
Loading
Personal Weather Stations






























Interactive Weather Map New forecast layout! Learn more

10-Day Weather Forecast

Advertisements
Track Severe Weather on mobile